Black, Texas
Current Conditions -  °F | °C
As of 10:15 AM on Saturday 22 Nov 2014 (Local Time) from KCVN Reporting Station
Clear Clear  
Wind Chill: 52°   Ceiling: Unl
Heat Index: 52°   Visibility: 10mi
Dew Point: 39°   Wind: 14mph
Humidity: 62%   Direction: 220°SW
Pressure: 29.99"   Gusts: NA
Location:  34.6538°N, 102.747°W
Report Text: KCVN 221615Z 22012KT 10SM CLR 11/04 A2999 RMK AO1
Loading
Personal Weather Stations






























Interactive Weather Map New forecast layout! Learn more

10-Day Weather Forecast

Advertisements
Track Severe Weather on mobile